Time;durP1;ratioP1;P1;durP2;ratioP2;P2;SDS_P1;SDS_P2;PMS_P1;PMS_P2;Temp;Humidity;BMP_temperature;BMP_pressure;BME280_temperature;BME280_humidity;BME280_pressure;Samples;Min_cycle;Max_cycle;Signal;HPM_P1;HPM_P2
2023/01/29 00:01:53;;;;;;;10.10;5.32;;;1.60;71.00;;;;;;5060798;28;20075;-69
2023/01/29 00:04:21;;;;;;;8.57;4.28;;;1.60;71.00;;;;;;5087382;28;20391;-68
2023/01/29 00:06:48;;;;;;;8.77;4.60;;;1.60;71.20;;;;;;5084992;28;20052;-68
2023/01/29 00:09:15;;;;;;;8.93;4.75;;;1.60;71.50;;;;;;5086938;28;20040;-68
2023/01/29 00:11:42;;;;;;;9.60;4.45;;;1.50;71.20;;;;;;5078550;28;20051;-62
2023/01/29 00:14:12;;;;;;;8.77;5.05;;;1.50;71.20;;;;;;5084048;28;20067;-62
2023/01/29 00:16:40;;;;;;;9.98;5.45;;;1.50;71.10;;;;;;5086554;28;20138;-71
2023/01/29 00:19:07;;;;;;;8.32;4.68;;;1.50;71.10;;;;;;5085773;28;20048;-72
2023/01/29 00:21:35;;;;;;;9.07;4.68;;;1.50;71.00;;;;;;5085352;28;20132;-62
2023/01/29 00:24:02;;;;;;;9.73;4.85;;;1.50;71.00;;;;;;5086446;28;20146;-61
2023/01/29 00:26:29;;;;;;;8.63;4.78;;;1.50;71.10;;;;;;5088327;28;20052;-67
2023/01/29 00:28:59;;;;;;;10.80;5.50;;;1.50;71.20;;;;;;5079931;28;20083;-67
2023/01/29 00:31:26;;;;;;;9.77;5.18;;;1.50;71.30;;;;;;5077730;28;20055;-73
2023/01/29 00:33:53;;;;;;;9.38;4.53;;;1.50;71.70;;;;;;5064169;28;20047;-73
2023/01/29 00:36:22;;;;;;;9.23;4.68;;;1.50;71.70;;;;;;5082301;28;20122;-62
2023/01/29 00:38:57;;;;;;;9.90;5.22;;;1.50;72.00;;;;;;5081282;28;20052;-61
2023/01/29 00:46:58;;;;;;;8.63;4.13;;;1.50;71.60;;;;;;5083532;28;20126;-73
2023/01/29 00:49:25;;;;;;;8.20;4.20;;;1.50;71.50;;;;;;5061854;28;20048;-73
2023/01/29 00:54:35;;;;;;;9.13;4.88;;;1.50;71.40;;;;;;5082345;28;20040;-69
2023/01/29 00:57:02;;;;;;;8.02;4.25;;;1.40;71.60;;;;;;5080086;28;20051;-61
2023/01/29 00:59:29;;;;;;;9.30;4.80;;;1.50;71.80;;;;;;5065397;28;20410;-61
2023/01/29 01:04:41;;;;;;;10.10;5.20;;;1.50;71.70;;;;;;5086623;28;20060;-62
2023/01/29 01:07:08;;;;;;;9.00;4.55;;;1.50;71.50;;;;;;5086370;28;20052;-61
2023/01/29 01:12:18;;;;;;;10.10;5.15;;;1.40;71.20;;;;;;5061673;28;20060;-73
2023/01/29 01:14:45;;;;;;;11.80;5.20;;;1.40;71.10;;;;;;5087942;28;20036;-74
2023/01/29 01:17:14;;;;;;;9.23;4.88;;;1.40;70.80;;;;;;5089121;28;20079;-67
2023/01/29 01:19:41;;;;;;;9.27;5.20;;;1.40;70.60;;;;;;5092021;28;20052;-69
2023/01/29 01:22:08;;;;;;;9.15;4.55;;;1.40;70.80;;;;;;5088476;28;20487;-73
2023/01/29 01:24:36;;;;;;;7.90;4.40;;;1.40;71.00;;;;;;5090375;28;20056;-73
2023/01/29 01:27:03;;;;;;;9.15;4.60;;;1.40;71.50;;;;;;5089315;28;20048;-68
2023/01/29 01:29:30;;;;;;;8.10;4.65;;;1.40;71.40;;;;;;5088497;28;20075;-67
2023/01/29 01:31:58;;;;;;;9.07;4.57;;;1.40;71.50;;;;;;5091598;28;20036;-74
2023/01/29 01:34:25;;;;;;;8.48;4.57;;;1.40;71.40;;;;;;5088983;28;20090;-72
2023/01/29 01:36:52;;;;;;;10.00;5.03;;;1.40;71.50;;;;;;5072865;28;20131;-68
2023/01/29 01:39:19;;;;;;;9.60;4.75;;;1.40;71.60;;;;;;5071338;28;20055;-68
2023/01/29 01:41:47;;;;;;;10.70;5.18;;;1.40;71.50;;;;;;5084858;28;20395;-63
2023/01/29 01:44:48;;;;;;;10.20;4.70;;;1.40;71.60;;;;;;5086220;28;20046;-62
2023/01/29 01:47:17;;;;;;;9.03;4.60;;;1.30;71.70;;;;;;5079449;28;20063;-61
2023/01/29 01:49:44;;;;;;;9.02;4.55;;;1.30;71.80;;;;;;5062055;28;20502;-60
2023/01/29 01:52:15;;;;;;;9.82;4.97;;;1.30;71.90;;;;;;5082379;28;20056;-69
2023/01/29 01:54:43;;;;;;;8.90;4.60;;;1.30;71.90;;;;;;5072534;28;20056;-69
2023/01/29 01:57:16;;;;;;;9.65;4.78;;;1.30;71.90;;;;;;5065230;28;20040;-69
2023/01/29 01:59:50;;;;;;;11.75;5.25;;;1.30;72.20;;;;;;5089636;28;20068;-69
2023/01/29 02:10:41;;;;;;;8.52;4.25;;;1.20;72.20;;;;;;5087613;28;20532;-62
2023/01/29 02:13:09;;;;;;;9.88;4.82;;;1.20;72.20;;;;;;5084050;28;20131;-62
2023/01/29 02:15:45;;;;;;;9.63;4.40;;;1.20;72.30;;;;;;5077967;28;20044;-61
2023/01/29 02:18:12;;;;;;;11.63;5.55;;;1.20;72.30;;;;;;5075650;28;20058;-63
2023/01/29 02:20:43;;;;;;;8.65;4.68;;;1.20;72.40;;;;;;5072532;28;20047;-61
2023/01/29 02:23:38;;;;;;;9.30;5.00;;;1.20;72.20;;;;;;5074363;28;20090;-62
2023/01/29 02:26:27;;;;;;;8.57;4.85;;;1.20;72.30;;;;;;5067865;28;20059;-60
2023/01/29 02:29:21;;;;;;;9.88;5.00;;;1.10;72.30;;;;;;5074886;28;20393;-62
2023/01/29 02:31:59;;;;;;;9.52;5.60;;;1.10;72.30;;;;;;5077034;28;20052;-71
2023/01/29 02:37:30;;;;;;;10.77;5.60;;;1.10;72.90;;;;;;5079295;28;20055;-68
2023/01/29 02:40:07;;;;;;;10.27;5.15;;;1.10;73.00;;;;;;5064985;28;20043;-67
2023/01/29 02:42:39;;;;;;;8.55;4.68;;;1.20;73.20;;;;;;5085716;28;20443;-63
2023/01/29 02:45:12;;;;;;;9.20;5.40;;;1.10;73.30;;;;;;5057800;28;20048;-63
2023/01/29 02:47:47;;;;;;;12.30;5.75;;;1.10;73.40;;;;;;5086632;28;20070;-63
2023/01/29 02:50:19;;;;;;;9.25;4.78;;;1.10;73.50;;;;;;5085947;28;20047;-62
2023/01/29 02:52:55;;;;;;;10.40;5.28;;;1.10;73.70;;;;;;5087025;28;20124;-73
2023/01/29 02:55:29;;;;;;;10.77;5.28;;;1.10;73.80;;;;;;5069243;28;20131;-73
2023/01/29 02:58:02;;;;;;;10.80;4.85;;;1.20;73.70;;;;;;5066110;28;20131;-73
2023/01/29 03:00:37;;;;;;;9.05;5.10;;;1.10;73.60;;;;;;5059493;28;20054;-73
2023/01/29 03:03:16;;;;;;;10.88;4.93;;;1.20;73.40;;;;;;5052888;28;20051;-72
2023/01/29 03:05:52;;;;;;;11.95;5.43;;;1.20;73.40;;;;;;5086215;28;20543;-73
2023/01/29 03:08:35;;;;;;;10.68;5.00;;;1.20;73.50;;;;;;5059986;28;20076;-73
2023/01/29 03:11:05;;;;;;;9.27;4.55;;;1.20;73.30;;;;;;5066850;28;20056;-72
2023/01/29 03:13:39;;;;;;;9.57;5.03;;;1.20;73.20;;;;;;5087259;28;20044;-73
2023/01/29 03:16:13;;;;;;;10.57;4.97;;;1.20;73.20;;;;;;5060607;28;20072;-75
2023/01/29 03:18:49;;;;;;;9.65;5.10;;;1.20;73.40;;;;;;5063751;28;20071;-73
2023/01/29 03:33:09;;;;;;;9.27;5.03;;;1.10;73.90;;;;;;5015468;28;20138;-73
2023/01/29 03:35:39;;;;;;;8.98;5.18;;;1.00;73.80;;;;;;5068956;28;20121;-73
2023/01/29 03:38:08;;;;;;;;;;;1.00;73.90;;;;;;5068622;28;20513;-73
2023/01/29 03:40:40;;;;;;;9.05;4.45;;;1.00;73.80;;;;;;5086903;28;19932;-73
2023/01/29 03:43:12;;;;;;;9.00;4.43;;;1.00;73.90;;;;;;5066835;28;20055;-73
2023/01/29 03:45:50;;;;;;;9.23;4.88;;;1.00;73.90;;;;;;5061569;28;20066;-73
2023/01/29 03:48:29;;;;;;;8.73;4.18;;;1.00;73.90;;;;;;5065493;28;20079;-72
2023/01/29 03:51:01;;;;;;;11.77;5.20;;;1.00;74.00;;;;;;5063704;28;20051;-61
2023/01/29 03:53:35;;;;;;;9.07;4.60;;;1.00;73.80;;;;;;5060563;28;20047;-61
2023/01/29 03:56:07;;;;;;;9.68;4.38;;;1.00;73.70;;;;;;5069525;28;20135;-61
2023/01/29 03:58:39;;;;;;;9.85;5.30;;;1.00;73.50;;;;;;5074738;28;21149;-61
2023/01/29 04:01:12;;;;;;;9.38;4.85;;;1.00;73.30;;;;;;5084280;28;20056;-61
2023/01/29 04:03:48;;;;;;;9.85;5.43;;;1.00;73.30;;;;;;5083583;28;20058;-62
2023/01/29 04:06:20;;;;;;;8.88;4.88;;;0.90;73.30;;;;;;5083941;28;20589;-72
2023/01/29 04:09:02;;;;;;;9.77;5.32;;;0.90;73.30;;;;;;5067226;28;20059;-74
2023/01/29 04:11:33;;;;;;;9.30;4.55;;;0.90;73.50;;;;;;5080893;28;20045;-73
2023/01/29 04:14:00;;;;;;;9.50;4.93;;;0.90;73.50;;;;;;5079637;28;20035;-73
2023/01/29 04:16:32;;;;;;;9.48;5.03;;;0.90;73.70;;;;;;5065547;28;20048;-62
2023/01/29 04:19:16;;;;;;;9.13;4.50;;;0.80;73.80;;;;;;5060898;28;20127;-61
2023/01/29 04:21:47;;;;;;;7.95;4.25;;;0.90;73.90;;;;;;5063435;28;20582;-60
2023/01/29 04:24:15;;;;;;;8.77;4.38;;;0.80;73.90;;;;;;5061504;28;20504;-61
2023/01/29 04:27:00;;;;;;;7.85;3.88;;;0.80;73.90;;;;;;5083173;28;20408;-61
2023/01/29 04:29:48;;;;;;;7.47;4.35;;;0.80;74.10;;;;;;5063239;28;20052;-60
2023/01/29 04:32:20;;;;;;;7.63;4.55;;;0.70;74.10;;;;;;5067946;28;20091;-60
2023/01/29 04:35:00;;;;;;;9.43;4.85;;;0.70;74.30;;;;;;5069065;28;20048;-62
2023/01/29 04:37:44;;;;;;;9.20;4.45;;;0.70;74.50;;;;;;5068250;28;20044;-61
2023/01/29 04:40:20;;;;;;;10.45;4.28;;;0.70;74.30;;;;;;5080509;28;20036;-63
2023/01/29 04:42:54;;;;;;;9.57;4.90;;;0.70;74.20;;;;;;5082045;28;20234;-71
2023/01/29 04:45:30;;;;;;;7.50;4.30;;;0.70;74.30;;;;;;5085585;28;20048;-71
2023/01/29 04:48:06;;;;;;;9.13;4.80;;;0.70;74.40;;;;;;5085697;28;20044;-71
2023/01/29 04:50:41;;;;;;;7.93;4.38;;;0.70;74.50;;;;;;5082335;28;20048;-67
2023/01/29 04:53:17;;;;;;;9.60;4.30;;;0.60;74.60;;;;;;5083370;28;20418;-62
2023/01/29 04:55:48;;;;;;;9.10;4.13;;;0.60;74.80;;;;;;5088001;28;20391;-72
2023/01/29 04:58:20;;;;;;;10.20;4.75;;;0.60;74.80;;;;;;5084021;28;20051;-70
2023/01/29 05:00:53;;;;;;;9.85;4.05;;;0.70;74.80;;;;;;5084254;28;20040;-73
2023/01/29 05:03:24;;;;;;;9.30;4.65;;;0.70;74.80;;;;;;5082481;28;20052;-71
2023/01/29 05:05:55;;;;;;;10.32;5.00;;;0.70;74.70;;;;;;5085377;28;20063;-71
2023/01/29 05:08:31;;;;;;;9.65;4.50;;;0.70;74.70;;;;;;5082755;28;20133;-69
2023/01/29 05:11:00;;;;;;;9.43;4.78;;;0.70;74.80;;;;;;5079284;28;20463;-72
2023/01/29 05:13:29;;;;;;;8.85;4.63;;;0.70;74.90;;;;;;5082225;28;20082;-72
2023/01/29 05:16:02;;;;;;;8.05;4.63;;;0.70;75.00;;;;;;5086134;28;20054;-63
2023/01/29 05:18:30;;;;;;;9.30;4.65;;;0.60;75.00;;;;;;5084539;28;20577;-64
2023/01/29 05:21:03;;;;;;;9.82;4.70;;;0.70;75.00;;;;;;5081187;28;20056;-62
2023/01/29 05:23:29;;;;;;;7.95;4.82;;;0.60;74.90;;;;;;5085681;28;20544;-62
2023/01/29 05:25:56;;;;;;;8.00;4.65;;;0.60;75.00;;;;;;5084815;28;20051;-68
2023/01/29 05:28:22;;;;;;;8.10;4.35;;;0.70;75.10;;;;;;5066502;28;20451;-70
2023/01/29 05:30:51;;;;;;;8.02;4.20;;;0.60;75.10;;;;;;5085050;28;20059;-72
2023/01/29 05:33:21;;;;;;;9.43;4.50;;;0.70;75.20;;;;;;5085776;28;20074;-73
2023/01/29 05:35:49;;;;;;;8.82;4.85;;;0.70;75.30;;;;;;5087013;28;20052;-62
2023/01/29 05:38:18;;;;;;;8.63;4.18;;;0.60;75.40;;;;;;5085337;28;20052;-61
2023/01/29 05:40:45;;;;;;;8.02;4.75;;;0.60;75.50;;;;;;5085170;28;20074;-61
2023/01/29 05:43:16;;;;;;;9.65;4.20;;;0.60;75.40;;;;;;5080379;28;20036;-60
2023/01/29 05:45:43;;;;;;;10.05;4.65;;;0.60;75.40;;;;;;5085614;28;20051;-61
2023/01/29 05:48:10;;;;;;;10.18;4.82;;;0.60;75.40;;;;;;5086280;28;20101;-61
2023/01/29 05:50:37;;;;;;;9.35;4.97;;;0.60;75.50;;;;;;5086713;28;20155;-62
2023/01/29 05:53:04;;;;;;;8.07;4.57;;;0.50;75.50;;;;;;5088508;28;20051;-64
2023/01/29 05:55:32;;;;;;;9.80;4.68;;;0.60;75.70;;;;;;5087910;28;20060;-62
2023/01/29 05:57:59;;;;;;;8.98;4.47;;;0.50;75.70;;;;;;5087926;28;20048;-62
2023/01/29 06:00:26;;;;;;;10.45;4.72;;;0.50;75.70;;;;;;5087383;28;20054;-61
2023/01/29 06:02:53;;;;;;;7.72;4.53;;;0.50;75.70;;;;;;5084837;28;20052;-61
2023/01/29 06:05:20;;;;;;;8.13;4.63;;;0.50;75.60;;;;;;5085911;28;20048;-62
2023/01/29 06:07:47;;;;;;;8.20;4.40;;;0.50;75.60;;;;;;5088068;28;20052;-62
2023/01/29 06:10:15;;;;;;;8.40;4.00;;;0.60;75.70;;;;;;5087079;28;20048;-61
2023/01/29 06:12:44;;;;;;;11.50;4.82;;;0.60;75.90;;;;;;5078571;28;20147;-71
2023/01/29 06:15:14;;;;;;;7.55;4.35;;;0.50;75.90;;;;;;5080771;28;20055;-72
2023/01/29 06:17:41;;;;;;;9.00;4.75;;;0.50;75.80;;;;;;5084557;28;20132;-60
2023/01/29 06:20:10;;;;;;;9.02;4.80;;;0.50;75.80;;;;;;5087795;28;20067;-60
2023/01/29 06:22:37;;;;;;;7.65;4.05;;;0.50;75.80;;;;;;5084544;28;20528;-72
2023/01/29 06:25:04;;;;;;;8.07;4.70;;;0.50;75.70;;;;;;5089584;28;20047;-70
2023/01/29 06:27:31;;;;;;;8.13;4.05;;;0.50;75.70;;;;;;5088537;28;20406;-68
2023/01/29 06:29:59;;;;;;;7.80;4.78;;;0.50;75.80;;;;;;5089282;28;20051;-69
2023/01/29 06:32:27;;;;;;;8.48;4.72;;;0.50;75.50;;;;;;5087954;28;20052;-60
2023/01/29 06:34:53;;;;;;;8.30;4.88;;;0.50;75.60;;;;;;5084336;28;20413;-62
2023/01/29 06:37:20;;;;;;;9.20;4.85;;;0.50;75.70;;;;;;5085414;28;20048;-69
2023/01/29 06:39:47;;;;;;;9.57;4.28;;;0.40;75.80;;;;;;5087709;28;20052;-69
2023/01/29 06:42:14;;;;;;;7.60;4.05;;;0.50;75.80;;;;;;5086322;28;20059;-67
2023/01/29 06:44:43;;;;;;;9.73;4.75;;;0.50;75.80;;;;;;5083303;28;20594;-66
2023/01/29 06:47:11;;;;;;;8.95;4.65;;;0.50;75.80;;;;;;5085527;28;20048;-72
2023/01/29 06:49:38;;;;;;;9.40;4.50;;;0.50;75.90;;;;;;5087727;28;20513;-71
2023/01/29 06:52:05;;;;;;;10.23;4.80;;;0.50;76.00;;;;;;5084816;28;20044;-66
2023/01/29 06:54:32;;;;;;;11.40;5.15;;;0.40;76.10;;;;;;5087106;28;20048;-68
2023/01/29 06:56:59;;;;;;;9.77;5.75;;;0.40;76.10;;;;;;5086337;28;20056;-70
2023/01/29 06:59:26;;;;;;;12.43;5.32;;;0.40;76.20;;;;;;5089342;28;20050;-69
2023/01/29 07:01:53;;;;;;;11.63;5.95;;;0.40;76.20;;;;;;5083411;28;20123;-72
2023/01/29 07:04:21;;;;;;;15.13;6.38;;;0.40;76.40;;;;;;5085140;28;20078;-72
2023/01/29 07:06:48;;;;;;;13.82;5.93;;;0.40;76.50;;;;;;5084884;28;20135;-61
2023/01/29 07:09:15;;;;;;;12.27;6.45;;;0.50;76.70;;;;;;5079818;28;20052;-60
2023/01/29 07:11:41;;;;;;;12.80;6.40;;;0.40;76.60;;;;;;5085193;28;20432;-71
2023/01/29 07:14:08;;;;;;;11.85;6.55;;;0.50;76.60;;;;;;5084552;28;20081;-71
2023/01/29 07:16:35;;;;;;;12.95;6.30;;;0.40;76.60;;;;;;5086599;28;20058;-68
2023/01/29 07:19:02;;;;;;;11.43;7.32;;;0.40;76.70;;;;;;5082781;28;20051;-67
2023/01/29 07:21:30;;;;;;;13.80;6.90;;;0.40;76.80;;;;;;5083671;28;20051;-70
2023/01/29 07:23:57;;;;;;;14.73;7.47;;;0.40;76.90;;;;;;5086203;28;20045;-71
2023/01/29 07:26:24;;;;;;;12.55;6.85;;;0.40;76.90;;;;;;5083348;28;20040;-68
2023/01/29 07:28:51;;;;;;;14.55;7.15;;;0.50;76.80;;;;;;5088386;28;20044;-68
2023/01/29 07:31:18;;;;;;;14.13;7.30;;;0.50;76.90;;;;;;5087862;28;20056;-72
2023/01/29 07:33:46;;;;;;;12.75;6.90;;;0.50;77.00;;;;;;5083441;28;20044;-72
2023/01/29 07:36:13;;;;;;;11.23;5.97;;;0.40;77.00;;;;;;5082757;28;20035;-62
2023/01/29 07:38:41;;;;;;;11.20;5.97;;;0.40;77.10;;;;;;5086465;28;20536;-61
2023/01/29 07:41:10;;;;;;;12.23;6.05;;;0.40;77.10;;;;;;5087371;28;20109;-67
2023/01/29 07:43:37;;;;;;;12.27;6.07;;;0.50;77.00;;;;;;5086584;28;21075;-67
2023/01/29 07:46:04;;;;;;;11.00;6.47;;;0.50;77.00;;;;;;5086878;28;20048;-68
2023/01/29 07:48:32;;;;;;;11.38;6.15;;;0.40;77.20;;;;;;5085542;28;20055;-68
2023/01/29 07:50:58;;;;;;;11.07;6.25;;;0.40;77.30;;;;;;5087403;28;20076;-72
2023/01/29 07:53:26;;;;;;;12.23;6.85;;;0.40;77.10;;;;;;5084310;28;20051;-74
2023/01/29 07:55:54;;;;;;;10.23;5.90;;;0.40;76.90;;;;;;5085760;28;20048;-67
2023/01/29 07:58:21;;;;;;;11.55;6.50;;;0.50;76.60;;;;;;5087011;28;20100;-67
2023/01/29 08:00:48;;;;;;;12.18;6.80;;;0.50;76.50;;;;;;5083146;28;20044;-72
2023/01/29 08:03:17;;;;;;;11.23;6.28;;;0.50;76.60;;;;;;5082554;28;20110;-71
2023/01/29 08:05:44;;;;;;;10.88;5.85;;;0.60;76.40;;;;;;5086133;28;20548;-70
2023/01/29 08:08:11;;;;;;;12.88;6.30;;;0.60;76.30;;;;;;5080845;28;20542;-69
2023/01/29 08:10:40;;;;;;;11.43;6.20;;;0.60;76.10;;;;;;5084032;28;20052;-67
2023/01/29 08:13:08;;;;;;;10.10;5.38;;;0.60;75.90;;;;;;5084650;28;20056;-68
2023/01/29 08:15:35;;;;;;;12.25;6.30;;;0.70;75.80;;;;;;5080695;28;20075;-70
2023/01/29 08:18:02;;;;;;;10.50;5.43;;;0.70;75.70;;;;;;5086047;28;20052;-72
2023/01/29 08:20:29;;;;;;;10.85;5.45;;;0.70;75.60;;;;;;5057520;28;20485;-71
2023/01/29 08:23:01;;;;;;;12.25;6.38;;;0.70;75.60;;;;;;5084828;28;20054;-72
2023/01/29 08:25:31;;;;;;;10.52;5.43;;;0.70;75.30;;;;;;5082326;28;20577;-72
2023/01/29 08:27:59;;;;;;;10.88;5.82;;;0.70;75.30;;;;;;5086613;28;20044;-71
2023/01/29 08:30:29;;;;;;;10.65;6.03;;;0.80;75.00;;;;;;5082943;28;20044;-72
2023/01/29 08:32:56;;;;;;;13.45;5.38;;;0.80;74.90;;;;;;5086294;28;20044;-73
2023/01/29 08:35:24;;;;;;;10.07;5.82;;;0.80;74.90;;;;;;5085277;28;21163;-72
2023/01/29 08:37:54;;;;;;;11.07;6.45;;;0.70;74.80;;;;;;5085500;28;20059;-72
2023/01/29 08:40:21;;;;;;;13.00;6.38;;;0.90;74.80;;;;;;5084546;28;20577;-73
2023/01/29 08:42:48;;;;;;;12.10;6.20;;;0.90;74.50;;;;;;5088028;28;20525;-72
2023/01/29 08:45:15;;;;;;;11.20;6.07;;;1.00;74.50;;;;;;5084922;28;20490;-71
2023/01/29 08:47:47;;;;;;;11.23;6.57;;;1.00;74.20;;;;;;5080044;28;20422;-71
2023/01/29 08:50:14;;;;;;;11.50;6.03;;;1.00;74.20;;;;;;5084742;28;20040;-73
2023/01/29 08:52:41;;;;;;;13.27;6.82;;;1.00;74.30;;;;;;5087177;28;20052;-72
2023/01/29 08:55:08;;;;;;;13.07;6.10;;;1.00;74.00;;;;;;5086006;28;20048;-71
2023/01/29 08:57:35;;;;;;;11.70;7.03;;;1.00;73.80;;;;;;5081719;28;20067;-72
2023/01/29 09:00:09;;;;;;;14.98;7.60;;;1.00;73.80;;;;;;5084539;28;20051;-71
2023/01/29 09:02:36;;;;;;;14.90;7.55;;;1.00;73.90;;;;;;5086274;28;20141;-60
2023/01/29 09:05:05;;;;;;;13.00;7.18;;;1.00;73.70;;;;;;5086796;28;20422;-61
2023/01/29 09:07:32;;;;;;;12.35;6.60;;;1.10;73.80;;;;;;5084364;28;20062;-60
2023/01/29 09:09:59;;;;;;;10.48;5.85;;;1.00;73.50;;;;;;5086195;28;20044;-60
2023/01/29 09:12:26;;;;;;;10.38;5.82;;;1.00;73.30;;;;;;5080453;28;20051;-61
2023/01/29 09:14:53;;;;;;;9.27;5.53;;;1.10;73.70;;;;;;5087586;28;20059;-60
2023/01/29 09:17:20;;;;;;;9.43;5.57;;;1.10;73.40;;;;;;5083921;28;20048;-60
2023/01/29 09:19:47;;;;;;;9.68;6.03;;;1.10;73.30;;;;;;5083700;28;20499;-62
2023/01/29 09:22:15;;;;;;;11.50;6.30;;;1.10;73.30;;;;;;5082011;28;20035;-61
2023/01/29 09:24:42;;;;;;;9.70;6.13;;;1.20;73.20;;;;;;5089614;28;20052;-61
2023/01/29 09:27:09;;;;;;;8.85;5.80;;;1.10;73.00;;;;;;5085585;28;20036;-62
2023/01/29 09:29:36;;;;;;;9.32;5.88;;;1.10;72.90;;;;;;5088726;28;20063;-61
2023/01/29 09:32:04;;;;;;;9.40;6.10;;;1.10;73.20;;;;;;5088150;28;20047;-67
2023/01/29 09:34:31;;;;;;;8.65;5.32;;;1.20;72.80;;;;;;5085316;28;20051;-67
2023/01/29 09:36:58;;;;;;;8.82;5.70;;;1.30;72.60;;;;;;5090616;28;20055;-71
2023/01/29 09:39:26;;;;;;;9.18;5.40;;;1.30;72.60;;;;;;5087624;28;20044;-73
2023/01/29 09:41:59;;;;;;;9.93;5.50;;;1.30;72.30;;;;;;5080488;28;20491;-73
2023/01/29 09:44:42;;;;;;;8.60;5.25;;;1.30;72.30;;;;;;5084969;28;20036;-73
2023/01/29 09:47:14;;;;;;;9.18;5.03;;;1.20;72.60;;;;;;5071344;28;20478;-67
2023/01/29 09:49:46;;;;;;;8.25;5.65;;;1.20;72.40;;;;;;5086858;28;20040;-67
2023/01/29 09:52:18;;;;;;;8.38;5.70;;;1.20;73.00;;;;;;5085505;28;20063;-73
2023/01/29 09:54:54;;;;;;;9.63;6.05;;;1.30;72.40;;;;;;5090788;28;20138;-71
2023/01/29 09:57:27;;;;;;;8.20;6.03;;;1.30;72.40;;;;;;5086951;28;20051;-62
2023/01/29 09:59:55;;;;;;;9.68;6.28;;;1.40;72.60;;;;;;5087410;28;20663;-63
2023/01/29 10:02:41;;;;;;;8.55;5.78;;;1.40;72.30;;;;;;5085159;28;20134;-68
2023/01/29 10:05:41;;;;;;;11.45;7.03;;;1.40;72.10;;;;;;5083537;28;20111;-68
2023/01/29 10:08:36;;;;;;;9.63;5.85;;;1.40;72.10;;;;;;5085105;28;20048;-67
2023/01/29 10:11:14;;;;;;;8.20;5.65;;;1.50;72.20;;;;;;5084343;28;20612;-65
2023/01/29 10:13:48;;;;;;;9.38;6.03;;;1.50;72.20;;;;;;5089171;28;20052;-62
2023/01/29 10:16:31;;;;;;;8.50;6.13;;;1.60;72.50;;;;;;5083742;28;20047;-62
2023/01/29 10:19:23;;;;;;;9.38;6.05;;;1.70;72.30;;;;;;5086151;28;20132;-61
2023/01/29 10:22:08;;;;;;;8.02;5.65;;;1.70;72.10;;;;;;5090205;28;20048;-61
2023/01/29 10:24:38;;;;;;;10.82;6.03;;;1.70;72.30;;;;;;5086889;28;20047;-62
2023/01/29 10:27:14;;;;;;;9.23;6.15;;;1.70;72.50;;;;;;5082547;28;20044;-61
2023/01/29 10:29:42;;;;;;;8.98;6.18;;;1.70;72.00;;;;;;5089558;28;20131;-62
2023/01/29 10:32:15;;;;;;;9.65;5.90;;;1.80;71.80;;;;;;5085507;28;20058;-72
2023/01/29 10:34:46;;;;;;;11.05;5.68;;;1.70;71.90;;;;;;5082342;28;20059;-72
2023/01/29 10:37:17;;;;;;;10.10;5.68;;;1.70;71.80;;;;;;5068552;28;20074;-71
2023/01/29 10:39:44;;;;;;;11.85;6.00;;;1.70;71.90;;;;;;5088742;28;20388;-71
2023/01/29 10:42:28;;;;;;;8.38;5.72;;;1.70;71.80;;;;;;5086939;28;20040;-60
2023/01/29 10:45:13;;;;;;;8.27;5.45;;;1.70;71.90;;;;;;5087897;28;20051;-62
2023/01/29 10:48:03;;;;;;;9.27;5.97;;;1.70;71.80;;;;;;5089505;28;20051;-61
2023/01/29 10:50:44;;;;;;;11.23;6.07;;;1.70;71.80;;;;;;5085863;28;20056;-63
2023/01/29 10:53:27;;;;;;;8.68;5.45;;;1.70;71.90;;;;;;5086234;28;20395;-61
2023/01/29 10:56:01;;;;;;;8.85;5.80;;;1.70;71.70;;;;;;5085540;28;20049;-70
2023/01/29 10:58:37;;;;;;;10.07;6.13;;;1.70;71.50;;;;;;5087635;28;20048;-72
2023/01/29 11:01:04;;;;;;;10.18;6.28;;;1.80;71.60;;;;;;5080343;28;20524;-68
2023/01/29 11:03:33;;;;;;;9.40;6.18;;;1.80;71.40;;;;;;5084926;28;20533;-68
2023/01/29 11:06:10;;;;;;;8.60;5.32;;;1.90;71.60;;;;;;5083501;28;20048;-72
2023/01/29 11:08:42;;;;;;;9.88;5.90;;;1.90;71.50;;;;;;5059209;28;20052;-71
2023/01/29 11:11:12;;;;;;;10.40;6.15;;;1.90;71.50;;;;;;5081200;28;20109;-62
2023/01/29 11:13:45;;;;;;;10.02;6.43;;;2.00;71.20;;;;;;5088877;28;20050;-61
2023/01/29 11:16:13;;;;;;;8.75;5.97;;;2.00;71.20;;;;;;5086800;28;20052;-61
2023/01/29 11:18:55;;;;;;;9.80;5.97;;;2.00;71.20;;;;;;5085442;28;20131;-62
2023/01/29 11:21:23;;;;;;;9.52;5.60;;;2.00;71.20;;;;;;5085305;28;20052;-72
2023/01/29 11:23:50;;;;;;;9.05;5.85;;;2.00;70.80;;;;;;5083256;28;20048;-71
2023/01/29 11:26:22;;;;;;;9.50;5.70;;;2.00;70.30;;;;;;5084249;28;20048;-71
2023/01/29 11:28:51;;;;;;;13.95;6.47;;;2.00;71.20;;;;;;5086126;28;20071;-72
2023/01/29 11:31:22;;;;;;;9.90;6.72;;;2.00;70.60;;;;;;5084750;28;20105;-72
2023/01/29 11:33:50;;;;;;;10.90;7.05;;;2.00;71.30;;;;;;5077629;28;20178;-73
2023/01/29 11:36:25;;;;;;;10.63;7.15;;;2.00;71.20;;;;;;5073293;28;20078;-72
2023/01/29 11:39:13;;;;;;;9.77;6.68;;;2.00;70.90;;;;;;5087595;28;20043;-72
2023/01/29 11:41:43;;;;;;;10.77;6.43;;;2.00;70.70;;;;;;5081605;28;20047;-72
2023/01/29 11:44:21;;;;;;;11.00;7.28;;;2.00;70.70;;;;;;5084361;28;20071;-71
2023/01/29 11:46:49;;;;;;;10.50;6.65;;;2.10;70.60;;;;;;5085578;28;20064;-62
2023/01/29 11:49:27;;;;;;;10.52;6.97;;;2.10;70.60;;;;;;5082414;28;20054;-62
2023/01/29 11:51:55;;;;;;;11.25;6.70;;;2.20;70.90;;;;;;5083658;28;20044;-62
2023/01/29 11:54:28;;;;;;;9.27;6.22;;;2.20;70.40;;;;;;5082418;28;20048;-61
2023/01/29 11:56:56;;;;;;;11.57;6.20;;;2.20;71.00;;;;;;5089116;28;20072;-73
2023/01/29 11:59:38;;;;;;;13.93;7.55;;;2.30;71.20;;;;;;5085075;28;20048;-72
2023/01/29 12:02:22;;;;;;;10.05;6.30;;;2.20;70.50;;;;;;5079082;28;20044;-68
2023/01/29 12:04:50;;;;;;;12.43;7.07;;;2.30;70.70;;;;;;5081491;28;20059;-68
2023/01/29 12:07:18;;;;;;;12.02;6.93;;;2.30;70.40;;;;;;5086454;28;20047;-68
2023/01/29 12:09:51;;;;;;;10.13;6.63;;;2.30;70.40;;;;;;5080274;28;21680;-68
2023/01/29 12:12:28;;;;;;;13.75;7.40;;;2.30;70.20;;;;;;5071991;28;20056;-72
2023/01/29 12:15:16;;;;;;;9.90;6.35;;;2.30;70.40;;;;;;5082155;28;20082;-72
2023/01/29 12:18:02;;;;;;;9.93;6.13;;;2.30;69.80;;;;;;5086842;28;20044;-72
2023/01/29 12:20:35;;;;;;;9.85;6.75;;;2.40;70.10;;;;;;5082206;28;20060;-62
2023/01/29 12:23:14;;;;;;;10.35;7.28;;;2.50;70.30;;;;;;5085014;28;20047;-63
2023/01/29 12:25:50;;;;;;;10.27;6.20;;;2.50;69.90;;;;;;5083201;28;20047;-62
2023/01/29 12:28:31;;;;;;;8.93;6.10;;;2.50;70.20;;;;;;5074006;28;20130;-63
2023/01/29 12:31:12;;;;;;;11.02;6.10;;;2.50;69.80;;;;;;5082876;28;20056;-62
2023/01/29 12:33:50;;;;;;;11.85;6.03;;;2.50;69.60;;;;;;5083295;28;20048;-62
2023/01/29 12:36:23;;;;;;;10.63;5.78;;;2.50;69.60;;;;;;5081930;28;20422;-72
2023/01/29 12:38:50;;;;;;;10.13;6.80;;;2.50;69.70;;;;;;5085313;28;20052;-73
2023/01/29 12:41:29;;;;;;;11.38;7.07;;;2.40;69.70;;;;;;5080534;28;20043;-62
2023/01/29 12:44:07;;;;;;;9.63;6.28;;;2.40;69.90;;;;;;5082142;28;20424;-64
2023/01/29 12:46:40;;;;;;;8.88;6.32;;;2.40;69.70;;;;;;5081261;28;20505;-62
2023/01/29 12:49:15;;;;;;;10.90;6.82;;;2.40;69.80;;;;;;5086359;28;20056;-61
2023/01/29 12:51:53;;;;;;;10.10;6.63;;;2.40;70.00;;;;;;5080739;28;20052;-61
2023/01/29 12:54:26;;;;;;;12.10;6.78;;;2.30;69.90;;;;;;5082692;28;20063;-61
2023/01/29 12:56:59;;;;;;;10.93;7.18;;;2.30;70.40;;;;;;5083845;28;20044;-62
2023/01/29 12:59:32;;;;;;;11.55;7.53;;;2.30;70.40;;;;;;5085158;28;20055;-61
2023/01/29 13:02:14;;;;;;;13.43;7.25;;;2.20;70.70;;;;;;5086807;28;20127;-62
2023/01/29 13:04:47;;;;;;;12.95;7.20;;;2.30;70.50;;;;;;5087389;28;20079;-61
2023/01/29 13:07:17;;;;;;;10.50;7.05;;;2.20;70.40;;;;;;5089934;28;20074;-61
2023/01/29 13:09:49;;;;;;;12.02;7.05;;;2.20;70.90;;;;;;5091019;28;20040;-61
2023/01/29 13:12:20;;;;;;;12.90;7.88;;;2.20;70.70;;;;;;5077374;28;20101;-60
2023/01/29 13:14:52;;;;;;;11.50;6.80;;;2.20;70.80;;;;;;5089543;28;20055;-62
2023/01/29 13:17:26;;;;;;;10.57;6.63;;;2.10;71.00;;;;;;5083451;28;20090;-69
2023/01/29 13:19:57;;;;;;;11.35;7.13;;;2.10;70.80;;;;;;5086311;28;20154;-70
2023/01/29 13:22:26;;;;;;;13.30;7.75;;;2.20;71.00;;;;;;5086884;28;20036;-72
2023/01/29 13:24:54;;;;;;;12.20;7.47;;;2.10;71.30;;;;;;5087072;28;20055;-71
2023/01/29 13:27:25;;;;;;;12.02;6.85;;;2.00;70.80;;;;;;5087105;28;20655;-73
2023/01/29 13:29:53;;;;;;;10.85;7.07;;;2.10;71.30;;;;;;5087211;28;20568;-72
2023/01/29 13:32:26;;;;;;;10.80;6.78;;;2.00;70.80;;;;;;5085659;28;20044;-62
2023/01/29 13:34:55;;;;;;;11.27;6.43;;;2.10;71.30;;;;;;5085665;28;20063;-60
2023/01/29 13:37:29;;;;;;;12.30;6.95;;;2.10;71.20;;;;;;5086453;28;20135;-61
2023/01/29 13:39:57;;;;;;;10.75;6.97;;;2.10;70.90;;;;;;5086442;28;20055;-63
2023/01/29 13:42:33;;;;;;;9.68;6.50;;;2.10;70.90;;;;;;5083722;28;20058;-61
2023/01/29 13:45:03;;;;;;;9.77;6.70;;;2.10;71.40;;;;;;5088628;28;20518;-63
2023/01/29 13:47:34;;;;;;;11.70;6.45;;;2.10;71.10;;;;;;5088428;28;20172;-72
2023/01/29 13:50:03;;;;;;;13.07;7.07;;;2.10;71.00;;;;;;5085686;28;20040;-71
2023/01/29 13:52:42;;;;;;;10.40;6.00;;;2.00;70.50;;;;;;5084701;28;20506;-70